Time;durP1;ratioP1;P1;durP2;ratioP2;P2;SDS_P1;SDS_P2;PMS_P1;PMS_P2;Temp;Humidity;BMP_temperature;BMP_pressure;BME280_temperature;BME280_humidity;BME280_pressure;Samples;Min_cycle;Max_cycle;Signal;HPM_P1;HPM_P2
2021/06/19 00:00:46;;;;;;;12.45;10.05;;;24.10;99.90;;;24.49;74.20;101118.25;5135580;27;20047;-68
2021/06/19 00:03:15;;;;;;;13.38;10.35;;;24.10;99.90;;;24.24;74.77;101074.66;5135303;27;20549;-68
2021/06/19 00:05:44;;;;;;;14.93;11.52;;;24.00;99.90;;;24.31;74.79;101117.50;5135260;27;20054;-67
2021/06/19 00:08:14;;;;;;;14.52;12.25;;;23.90;99.90;;;24.15;75.51;101113.91;5135472;27;20035;-68
2021/06/19 00:10:43;;;;;;;13.45;12.05;;;23.70;99.90;;;24.13;75.85;101111.31;5135293;27;20039;-68
2021/06/19 00:13:12;;;;;;;15.43;12.87;;;23.60;99.90;;;24.01;76.17;101111.97;5135124;27;20047;-67
2021/06/19 00:15:40;;;;;;;16.48;13.25;;;23.60;99.90;;;23.87;76.50;101119.06;5135036;27;20368;-68
2021/06/19 00:18:09;;;;;;;18.20;13.77;;;23.50;99.90;;;23.96;76.79;101121.28;5134934;27;20075;-68
2021/06/19 00:20:37;;;;;;;17.83;13.88;;;23.40;99.90;;;23.84;76.96;101121.97;5135190;27;20042;-68
2021/06/19 00:23:06;;;;;;;19.65;14.27;;;23.40;99.90;;;23.83;77.22;101121.06;5135185;27;20046;-68
2021/06/19 00:25:36;;;;;;;18.02;14.88;;;23.40;99.90;;;23.89;77.14;101128.84;5134752;27;20043;-68
2021/06/19 00:28:05;;;;;;;15.85;14.25;;;23.40;99.90;;;23.74;77.34;101123.41;5116641;27;20107;-68
2021/06/19 00:30:33;;;;;;;16.50;14.93;;;23.30;99.90;;;23.59;78.13;101125.13;5134902;27;20047;-68
2021/06/19 00:33:02;;;;;;;25.08;20.52;;;23.20;99.90;;;23.21;78.35;101134.34;5134880;27;20051;-68
2021/06/19 00:35:30;;;;;;;24.88;22.38;;;22.90;99.90;;;23.16;78.98;101131.91;5134878;27;20476;-68
2021/06/19 00:37:59;;;;;;;28.08;25.10;;;22.80;99.90;;;23.05;78.91;101130.72;5116424;27;20531;-67
2021/06/19 00:40:27;;;;;;;30.48;24.95;;;22.70;99.90;;;22.83;79.32;101138.13;5134704;27;20485;-67
2021/06/19 00:43:00;;;;;;;33.67;26.90;;;22.50;99.90;;;22.74;79.57;101144.00;5134646;27;20051;-68
2021/06/19 00:45:31;;;;;;;35.72;29.52;;;22.40;99.90;;;22.55;79.58;101111.63;5134809;27;20533;-67
2021/06/19 00:48:00;;;;;;;36.55;31.40;;;22.30;99.90;;;22.52;80.04;101146.84;5134461;27;20798;-68
2021/06/19 00:50:29;;;;;;;35.70;31.77;;;22.20;99.90;;;22.52;80.22;101149.56;5115999;27;20046;-68
2021/06/19 00:52:57;;;;;;;37.45;32.10;;;22.10;99.90;;;22.28;80.46;101138.13;5134540;27;20039;-68
2021/06/19 00:55:25;;;;;;;41.00;33.95;;;22.00;99.90;;;22.26;80.84;101141.88;5134358;27;20055;-67
2021/06/19 00:57:54;;;;;;;41.17;34.72;;;21.90;99.90;;;22.01;81.63;101138.59;5134487;27;20050;-68
2021/06/19 01:00:25;;;;;;;49.08;36.63;;;21.70;99.90;;;22.20;81.50;101159.19;5134129;27;20551;-68
2021/06/19 01:02:55;;;;;;;46.25;38.33;;;21.80;99.90;;;21.95;81.55;101123.56;5134159;27;20084;-67
2021/06/19 01:05:26;;;;;;;46.05;38.15;;;21.80;99.90;;;22.10;81.66;101155.19;5134137;27;20043;-68
2021/06/19 01:07:56;;;;;;;;;;;21.70;99.90;;;22.12;81.71;101147.91;5135263;27;20104;-68
2021/06/19 01:10:25;;;;;;;46.30;37.25;;;21.70;99.90;;;22.10;81.42;101151.63;5133951;27;20451;-68
2021/06/19 01:12:55;;;;;;;46.40;36.50;;;21.70;99.90;;;22.03;81.84;101151.03;5134790;27;20063;-68
2021/06/19 01:15:25;;;;;;;48.37;37.03;;;21.60;99.90;;;22.09;81.67;101149.88;5134214;27;20050;-68
2021/06/19 01:17:53;;;;;;;46.88;39.17;;;21.60;99.90;;;21.84;81.77;101151.94;5134424;27;20326;-68
2021/06/19 01:20:22;;;;;;;52.90;41.88;;;21.50;99.90;;;21.70;82.28;101144.47;5134028;27;20083;-68
2021/06/19 01:22:54;;;;;;;53.90;43.40;;;21.30;99.90;;;21.62;82.70;101149.38;5134080;27;20055;-68
2021/06/19 01:25:26;;;;;;;56.95;43.25;;;21.30;99.90;;;21.58;82.94;101142.38;5115591;27;20051;-67
2021/06/19 01:27:55;;;;;;;57.63;45.42;;;21.20;99.90;;;21.56;82.98;101150.47;5133810;27;20369;-68
2021/06/19 01:30:26;;;;;;;59.80;47.43;;;21.20;99.90;;;21.58;82.99;101143.22;5133664;27;20564;-67
2021/06/19 01:32:56;;;;;;;61.35;47.72;;;21.20;99.90;;;21.59;82.96;101149.47;5134310;27;20047;-67
2021/06/19 01:35:26;;;;;;;58.65;47.83;;;21.20;99.90;;;21.44;83.33;101128.63;5133842;27;20121;-67
2021/06/19 01:37:57;;;;;;;61.38;48.53;;;21.20;99.90;;;21.69;82.97;101145.44;5134477;27;20042;-67
2021/06/19 01:40:29;;;;;;;60.63;47.45;;;21.20;99.90;;;21.59;82.50;101160.25;5133672;28;20047;-67
2021/06/19 01:42:59;;;;;;;59.47;45.80;;;21.30;99.90;;;21.62;82.31;101152.06;5115551;28;20055;-67
2021/06/19 01:45:29;;;;;;;59.45;46.45;;;21.20;99.90;;;21.34;82.77;101171.25;5133857;28;20039;-68
2021/06/19 01:48:00;;;;;;;;;;;21.10;99.90;;;21.32;83.08;101159.66;5134138;28;20467;-67
2021/06/19 01:50:29;;;;;;;60.72;46.25;;;21.00;99.90;;;21.15;83.47;101164.91;5133837;28;19923;-67
2021/06/19 01:52:58;;;;;;;65.65;47.40;;;20.80;99.90;;;21.25;83.38;101168.09;5133721;28;20125;-67
2021/06/19 01:55:29;;;;;;;67.20;49.40;;;20.90;99.90;;;21.16;83.27;101168.47;5133695;28;20080;-67
2021/06/19 01:58:00;;;;;;;65.43;50.83;;;20.80;99.90;;;21.00;83.67;101170.03;5133585;28;20104;-67
2021/06/19 02:00:30;;;;;;;70.03;49.92;;;20.60;99.90;;;21.06;83.90;101176.03;5133834;28;20166;-67
2021/06/19 02:02:59;;;;;;;65.22;47.90;;;20.60;99.90;;;20.95;83.88;101155.88;5115361;28;20043;-68
2021/06/19 02:05:28;;;;;;;61.47;48.53;;;20.70;99.90;;;21.23;83.62;101175.34;5133442;28;20089;-68
2021/06/19 02:07:59;;;;;;;60.85;44.30;;;20.80;99.90;;;21.17;83.24;101170.22;5133850;28;20047;-68
2021/06/19 02:10:30;;;;;;;;;;;20.80;99.90;;;21.24;82.53;101169.88;5133795;28;20541;-67
2021/06/19 02:13:00;;;;;;;52.50;40.97;;;20.90;99.90;;;21.22;82.64;101177.16;5133737;28;20337;-67
2021/06/19 02:15:29;;;;;;;58.30;42.45;;;20.80;99.90;;;21.16;82.67;101182.78;5133720;28;20081;-67
2021/06/19 02:17:58;;;;;;;49.88;39.17;;;20.80;99.90;;;21.08;82.58;101178.69;5133543;28;20038;-67
2021/06/19 02:20:27;;;;;;;46.80;35.97;;;20.70;99.90;;;21.00;82.81;101175.41;5133794;27;20089;-67
2021/06/19 02:22:57;;;;;;;46.75;34.08;;;20.60;99.90;;;21.05;82.31;101170.75;5137264;27;20092;-67
2021/06/19 02:25:29;;;;;;;45.73;34.67;;;20.60;99.90;;;21.11;81.58;101171.38;5137277;27;20138;-67
2021/06/19 02:28:00;;;;;;;42.30;32.70;;;20.70;99.90;;;20.96;81.43;101171.09;5137517;27;20054;-68
2021/06/19 02:30:32;;;;;;;48.45;32.92;;;20.60;99.90;;;20.85;81.93;101176.06;5137095;27;20485;-67
2021/06/19 02:33:03;;;;;;;49.03;34.65;;;20.50;99.90;;;20.72;82.45;101174.81;5118918;27;20551;-67
2021/06/19 02:35:33;;;;;;;48.88;36.63;;;20.40;99.90;;;20.72;82.76;101183.75;5137359;27;20047;-67
2021/06/19 02:38:04;;;;;;;56.42;40.53;;;20.40;99.90;;;20.75;82.77;101182.75;5137298;27;20051;-67
2021/06/19 02:40:35;;;;;;;48.05;38.70;;;20.30;99.90;;;20.57;82.94;101184.38;5137273;27;20070;-67
2021/06/19 02:43:03;;;;;;;58.83;42.80;;;20.30;99.90;;;20.86;82.73;101191.25;5137141;27;20374;-67
2021/06/19 02:45:32;;;;;;;54.60;42.15;;;20.40;99.90;;;20.90;82.54;101199.13;5136751;27;20553;-67
2021/06/19 02:48:01;;;;;;;53.88;40.95;;;20.50;99.90;;;21.07;82.29;101195.75;5118490;27;20171;-67
2021/06/19 02:50:33;;;;;;;49.55;34.63;;;20.60;99.90;;;20.83;81.80;101196.78;5136952;27;20134;-67
2021/06/19 02:53:02;;;;;;;53.03;38.55;;;20.50;99.90;;;20.83;81.88;101194.09;5136670;27;20043;-68
2021/06/19 02:55:34;;;;;;;53.38;40.63;;;20.50;99.90;;;20.93;81.91;101192.75;5136705;27;20108;-67
2021/06/19 02:58:04;;;;;;;57.70;40.50;;;20.50;99.90;;;20.85;81.69;101181.44;5136920;27;20051;-67
2021/06/19 03:00:32;;;;;;;61.47;42.80;;;20.50;99.90;;;20.71;81.96;101163.19;5136479;27;20035;-67
2021/06/19 03:03:01;;;;;;;57.85;42.35;;;20.40;99.90;;;20.97;81.89;101203.31;5136652;27;20047;-67
2021/06/19 03:05:32;;;;;;;57.38;41.25;;;20.50;99.90;;;21.06;81.52;101196.72;5136393;27;20043;-68
2021/06/19 03:08:01;;;;;;;56.72;41.63;;;20.60;99.90;;;20.88;81.68;101192.94;5136700;27;20047;-67
2021/06/19 03:10:33;;;;;;;55.05;38.92;;;20.50;99.90;;;20.68;81.87;101191.06;5118340;27;20063;-67
2021/06/19 03:13:02;;;;;;;56.67;40.65;;;20.40;99.90;;;20.69;82.13;101198.19;5136589;27;20047;-67
2021/06/19 03:15:30;;;;;;;57.60;40.42;;;20.30;99.90;;;20.72;82.10;101188.25;5136236;27;20599;-67
2021/06/19 03:17:59;;;;;;;57.90;41.22;;;20.30;99.90;;;20.71;82.37;101192.78;5136474;27;20050;-67
2021/06/19 03:20:28;;;;;;;61.53;42.60;;;20.30;99.90;;;20.75;82.12;101188.13;5136306;27;20438;-67
2021/06/19 03:22:59;;;;;;;62.55;45.55;;;20.40;99.90;;;20.76;82.28;101206.88;5136394;27;20051;-67
2021/06/19 03:25:28;;;;;;;;;;;20.30;99.90;;;20.61;82.65;101205.69;5136727;27;20063;-67
2021/06/19 03:28:00;;;;;;;68.38;45.67;;;20.20;99.90;;;20.46;83.61;101205.44;5136223;27;20305;-67
2021/06/19 03:30:32;;;;;;;66.30;45.30;;;20.10;99.90;;;20.39;83.81;101199.44;5136548;27;20043;-67
2021/06/19 03:33:00;;;;;;;69.75;48.47;;;20.10;99.90;;;20.36;84.54;101218.34;5135026;27;20055;-67
2021/06/19 03:35:29;;;;;;;67.50;47.70;;;19.90;99.90;;;20.38;84.31;101210.25;5135815;27;20046;-67
2021/06/19 03:37:58;;;;;;;67.72;46.60;;;20.00;99.90;;;19.94;84.24;101119.75;5136045;27;20043;-67
2021/06/19 03:40:29;;;;;;;66.88;45.03;;;20.10;99.90;;;20.62;83.84;101211.94;5135978;27;20096;-67
2021/06/19 03:42:59;;;;;;;64.22;44.75;;;20.20;99.90;;;20.52;84.29;101208.75;5136288;27;20051;-67
2021/06/19 03:45:30;;;;;;;62.38;42.47;;;20.10;99.90;;;20.74;84.19;101207.88;5135936;27;20396;-68
2021/06/19 03:47:58;;;;;;;62.42;41.63;;;20.30;99.90;;;20.56;84.24;101207.69;5135662;27;20054;-67
2021/06/19 03:50:29;;;;;;;53.55;38.97;;;20.20;99.90;;;20.64;84.13;101216.34;5135599;27;20047;-68
2021/06/19 03:53:00;;;;;;;51.83;38.70;;;20.30;99.90;;;20.64;84.06;101212.75;5135976;27;20074;-67
2021/06/19 03:55:29;;;;;;;54.72;37.42;;;20.20;99.90;;;20.73;83.87;101214.22;5136159;27;20043;-68
2021/06/19 03:58:01;;;;;;;49.00;36.73;;;20.30;99.90;;;20.61;84.04;101211.06;5136011;27;20039;-68
2021/06/19 04:00:31;;;;;;;54.38;39.58;;;20.20;99.90;;;20.60;84.13;101224.56;5135723;27;20050;-68
2021/06/19 04:02:59;;;;;;;49.42;37.38;;;20.20;99.90;;;20.52;84.56;101215.94;5135321;27;20077;-68
2021/06/19 04:05:28;;;;;;;53.75;38.28;;;20.10;99.90;;;20.66;84.50;101227.00;5135528;27;20070;-67
2021/06/19 04:07:56;;;;;;;53.65;38.85;;;20.20;99.90;;;20.60;84.02;101225.47;5131286;27;20124;-68
2021/06/19 04:10:25;;;;;;;53.83;39.13;;;20.20;99.90;;;20.55;84.71;101226.59;5135356;27;20051;-68
2021/06/19 04:12:55;;;;;;;52.63;38.00;;;20.20;99.90;;;20.64;84.53;101231.56;5135310;27;20126;-68
2021/06/19 04:15:25;;;;;;;52.72;38.10;;;20.20;99.90;;;20.68;84.43;101243.97;5116868;27;20074;-68
2021/06/19 04:17:53;;;;;;;53.35;39.30;;;20.30;99.90;;;20.63;84.43;101229.84;5135295;27;20434;-67
2021/06/19 04:20:22;;;;;;;52.08;36.58;;;20.30;99.90;;;20.57;84.82;101238.16;5134979;27;20047;-67
2021/06/19 04:22:50;;;;;;;51.38;38.13;;;20.20;99.90;;;20.74;84.46;101232.09;5135185;27;20074;-67
2021/06/19 04:25:19;;;;;;;52.15;36.63;;;20.30;99.90;;;20.79;84.11;101232.78;5134907;27;20051;-67
2021/06/19 04:27:51;;;;;;;49.83;37.08;;;20.40;99.90;;;20.75;84.37;101237.38;5135076;27;20080;-68
2021/06/19 04:30:22;;;;;;;46.85;36.25;;;20.30;99.90;;;20.77;84.25;101235.53;5134842;27;20151;-67
2021/06/19 04:32:53;;;;;;;46.95;35.30;;;20.40;99.90;;;20.86;83.99;101236.97;5134992;27;20075;-67
2021/06/19 04:35:25;;;;;;;46.83;34.47;;;20.40;99.90;;;20.71;84.33;101238.47;5135022;27;20054;-67
2021/06/19 04:37:54;;;;;;;52.00;36.25;;;20.40;99.90;;;20.76;84.67;101247.22;5134924;27;20088;-68
2021/06/19 04:40:29;;;;;;;49.05;35.80;;;20.30;99.90;;;20.64;84.82;101231.56;5134845;27;20123;-67
2021/06/19 04:43:00;;;;;;;41.92;31.48;;;20.30;99.90;;;20.63;85.21;101251.34;5134589;27;20485;-67
2021/06/19 04:45:30;;;;;;;40.95;30.98;;;20.20;99.90;;;20.68;85.12;101255.59;5134517;27;20055;-68
2021/06/19 04:48:02;;;;;;;41.58;29.77;;;20.30;99.90;;;20.58;85.52;101264.97;5134618;27;20073;-67
2021/06/19 04:50:32;;;;;;;37.80;29.17;;;20.20;99.90;;;20.49;85.88;101273.41;5116187;27;20047;-68
2021/06/19 04:53:02;;;;;;;33.70;26.98;;;20.10;99.90;;;20.43;86.36;101275.44;5134555;27;20039;-67
2021/06/19 04:55:31;;;;;;;30.38;26.23;;;20.10;99.90;;;20.31;86.49;101266.03;5134754;27;20108;-68
2021/06/19 04:58:03;;;;;;;32.85;28.95;;;20.00;99.90;;;20.40;86.69;101276.41;5134530;27;20043;-67
2021/06/19 05:00:33;;;;;;;30.42;27.13;;;20.00;99.90;;;20.35;86.54;101277.53;5116119;27;20043;-67
2021/06/19 05:03:04;;;;;;;32.03;26.58;;;19.90;99.90;;;19.82;86.60;101193.56;5134504;27;20105;-67
2021/06/19 05:05:34;;;;;;;30.30;27.10;;;19.90;99.90;;;20.19;87.02;101314.00;5134434;27;20055;-67
2021/06/19 05:08:03;;;;;;;28.13;25.23;;;19.80;99.90;;;20.20;87.43;101291.53;5134693;27;20481;-68
2021/06/19 05:10:31;;;;;;;29.58;26.42;;;19.80;99.90;;;20.06;87.55;101289.34;5115546;27;20039;-68
2021/06/19 05:12:59;;;;;;;29.27;25.00;;;19.70;99.90;;;20.12;87.74;101299.84;5133917;27;20035;-68
2021/06/19 05:15:28;;;;;;;29.85;26.65;;;19.70;99.90;;;20.08;87.90;101310.75;5134175;27;20039;-67
2021/06/19 05:17:57;;;;;;;24.35;21.80;;;19.70;99.90;;;19.99;87.99;101301.25;5134236;27;20035;-67
2021/06/19 05:20:29;;;;;;;24.65;22.05;;;19.60;99.90;;;20.04;88.03;101309.13;5134398;27;20092;-67
2021/06/19 05:22:58;;;;;;;25.83;23.13;;;19.60;99.90;;;19.48;87.52;101222.56;5134141;27;20031;-67
2021/06/19 05:25:28;;;;;;;25.92;23.17;;;19.60;99.90;;;20.09;87.80;101307.16;5134074;27;20047;-68
2021/06/19 05:27:56;;;;;;;26.90;23.95;;;19.70;99.90;;;20.06;87.41;101308.13;5133801;27;20488;-67
2021/06/19 05:30:25;;;;;;;27.70;24.75;;;19.70;99.90;;;20.02;87.62;101305.59;5134076;27;20092;-67
2021/06/19 05:32:54;;;;;;;26.27;23.50;;;19.70;99.90;;;20.01;87.73;101314.63;5133977;27;20043;-68
2021/06/19 05:35:23;;;;;;;28.23;25.33;;;19.60;99.90;;;20.01;87.75;101328.94;5134258;27;20139;-67
2021/06/19 05:37:53;;;;;;;27.50;24.53;;;19.70;99.90;;;19.94;87.51;101307.72;5133952;27;20055;-67
2021/06/19 05:40:22;;;;;;;27.15;24.38;;;19.70;99.90;;;20.01;87.59;101325.34;5134265;28;20122;-67
2021/06/19 05:42:52;;;;;;;27.92;25.13;;;19.70;99.90;;;20.14;87.40;101324.84;5133881;28;20096;-67
2021/06/19 05:45:21;;;;;;;27.60;24.75;;;19.70;99.90;;;20.02;87.23;101327.09;5133918;28;20040;-68
2021/06/19 05:47:50;;;;;;;28.38;23.95;;;19.70;99.90;;;20.09;86.82;101328.66;5133811;28;20043;-68
2021/06/19 05:50:18;;;;;;;29.70;26.77;;;19.70;99.90;;;20.01;86.92;101325.34;5133839;28;20114;-68
2021/06/19 05:52:47;;;;;;;29.77;26.67;;;19.70;99.90;;;19.95;87.38;101331.81;5115348;28;20075;-68
2021/06/19 05:55:17;;;;;;;28.65;25.70;;;19.60;99.90;;;20.01;87.01;101334.31;5133520;27;20047;-68
2021/06/19 05:57:46;;;;;;;26.83;24.23;;;19.70;99.90;;;19.54;86.37;101238.44;5138061;27;20476;-68
2021/06/19 06:00:16;;;;;;;25.13;22.80;;;19.70;99.90;;;19.99;86.30;101333.47;5137942;27;20440;-68
2021/06/19 06:02:45;;;;;;;27.50;24.98;;;19.70;99.90;;;20.10;86.39;101336.66;5138006;27;20039;-68
2021/06/19 06:05:14;;;;;;;25.63;23.20;;;19.70;99.90;;;20.17;86.08;101348.06;5137883;27;20066;-68
2021/06/19 06:07:43;;;;;;;23.90;21.50;;;19.70;99.90;;;20.11;85.42;101346.44;5138065;27;20094;-67
2021/06/19 06:10:12;;;;;;;21.25;19.35;;;19.80;99.90;;;19.91;85.38;101351.66;5137722;27;20047;-68
2021/06/19 06:12:44;;;;;;;22.23;20.23;;;19.60;99.90;;;20.09;85.18;101351.00;5137694;27;20050;-67
2021/06/19 06:15:13;;;;;;;17.60;15.88;;;19.60;99.90;;;19.90;84.53;101354.41;5137751;27;20370;-68
2021/06/19 06:17:42;;;;;;;16.45;14.80;;;19.60;99.90;;;19.85;84.78;101359.94;5137635;27;20102;-68
2021/06/19 06:20:12;;;;;;;16.25;14.75;;;19.50;99.90;;;19.74;84.25;101354.06;5119154;27;20047;-68
2021/06/19 06:22:41;;;;;;;13.43;12.23;;;19.50;99.90;;;19.85;84.39;101356.34;5137316;27;20058;-67
2021/06/19 06:25:12;;;;;;;11.82;10.70;;;19.50;99.90;;;19.77;83.75;101364.69;5137517;27;20124;-68
2021/06/19 06:27:42;;;;;;;13.85;12.57;;;19.40;99.90;;;19.75;84.03;101370.09;5137727;27;20054;-68
2021/06/19 06:30:13;;;;;;;11.50;10.45;;;19.40;99.90;;;19.98;83.32;101368.41;5137719;27;20052;-67
2021/06/19 06:32:41;;;;;;;9.23;8.45;;;19.60;99.90;;;19.94;82.73;101370.34;5137266;27;20513;-68
2021/06/19 06:35:11;;;;;;;8.00;7.30;;;19.60;99.90;;;19.98;81.98;101372.00;5137323;27;20063;-68
2021/06/19 06:37:42;;;;;;;8.45;6.70;;;19.60;99.90;;;20.10;81.69;101376.06;5118854;27;20047;-68
2021/06/19 06:40:13;;;;;;;7.00;4.67;;;19.70;99.90;;;19.93;80.26;101376.66;5137213;27;20039;-67
2021/06/19 06:42:43;;;;;;;4.85;4.38;;;19.70;99.90;;;19.88;79.55;101375.06;5136970;27;20686;-68
2021/06/19 06:45:15;;;;;;;4.68;4.32;;;19.60;99.90;;;19.85;79.41;101384.09;5118657;27;20071;-68
2021/06/19 06:47:50;;;;;;;5.18;4.68;;;19.50;99.90;;;19.76;79.54;101357.56;5137038;27;20051;-68
2021/06/19 06:50:20;;;;;;;4.83;4.13;;;19.50;99.90;;;19.80;79.26;101375.34;5136757;27;20086;-68
2021/06/19 06:52:49;;;;;;;;;;;19.50;99.90;;;19.81;78.94;101382.44;5137661;27;20049;-68
2021/06/19 06:55:18;;;;;;;3.30;3.10;;;19.50;99.90;;;19.83;78.44;101380.59;5136663;27;19927;-68
2021/06/19 06:57:48;;;;;;;4.20;3.90;;;19.50;99.90;;;19.91;77.59;101385.69;5136693;27;20074;-68
2021/06/19 07:00:18;;;;;;;3.75;3.45;;;19.50;99.90;;;19.89;77.64;101393.81;5136801;27;20039;-67
2021/06/19 07:02:47;;;;;;;4.03;3.63;;;19.50;99.90;;;19.93;77.55;101373.09;5118378;27;20104;-68
2021/06/19 07:05:16;;;;;;;3.63;3.33;;;19.60;99.90;;;19.78;76.86;101382.56;5136684;27;20374;-68
2021/06/19 07:07:47;;;;;;;4.03;3.63;;;19.50;99.90;;;19.77;76.81;101386.16;5136182;27;20399;-68
2021/06/19 07:10:16;;;;;;;3.70;3.40;;;19.50;99.90;;;19.66;76.77;101366.84;5136753;27;20436;-67
2021/06/19 07:12:45;;;;;;;3.90;3.60;;;19.50;99.90;;;19.69;77.03;101389.09;5118053;27;20046;-68
2021/06/19 07:15:18;;;;;;;4.10;3.80;;;19.40;99.90;;;19.61;77.30;101387.59;5118203;27;20047;-67
2021/06/19 07:17:48;;;;;;;4.82;4.30;;;19.40;99.90;;;19.60;77.78;101388.53;5136741;27;20418;-67
2021/06/19 07:20:18;;;;;;;6.93;4.45;;;19.30;99.90;;;19.70;77.91;101395.34;5136422;27;20513;-67
2021/06/19 07:22:47;;;;;;;6.43;4.78;;;19.30;99.90;;;19.76;77.84;101393.31;5117985;27;20047;-68
2021/06/19 07:25:16;;;;;;;6.93;6.00;;;19.40;99.90;;;19.83;77.57;101402.06;5136595;27;20067;-67
2021/06/19 07:27:53;;;;;;;9.23;6.50;;;19.50;99.90;;;19.72;77.47;101391.66;5136154;27;20111;-68
2021/06/19 07:30:24;;;;;;;6.75;6.03;;;19.40;99.90;;;19.70;77.51;101401.59;5117834;27;20103;-67
2021/06/19 07:32:53;;;;;;;6.53;5.72;;;19.40;99.90;;;19.34;77.45;101345.56;5136261;27;20062;-67
2021/06/19 07:35:22;;;;;;;7.78;7.03;;;19.40;99.90;;;19.42;77.70;101357.81;5135869;27;20096;-68
2021/06/19 07:37:51;;;;;;;8.93;6.80;;;19.40;99.90;;;19.73;77.68;101422.97;5136137;27;20055;-68
2021/06/19 07:40:19;;;;;;;11.80;10.07;;;19.50;99.90;;;19.73;77.84;101430.13;5117486;27;20492;-68
2021/06/19 07:42:48;;;;;;;13.52;10.57;;;19.40;99.90;;;19.68;77.42;101430.31;5135768;27;20039;-67
2021/06/19 07:45:17;;;;;;;12.57;10.90;;;19.40;99.90;;;19.61;77.94;101425.16;5135796;27;20380;-68
2021/06/19 07:47:47;;;;;;;13.93;11.70;;;19.30;99.90;;;19.60;77.72;101404.63;5136129;27;20074;-68
2021/06/19 07:50:16;;;;;;;11.43;9.13;;;19.40;99.90;;;19.71;77.27;101437.38;5135897;27;20047;-68
2021/06/19 07:52:45;;;;;;;10.98;8.45;;;19.40;99.90;;;19.65;77.16;101438.44;5135764;27;20292;-68
2021/06/19 07:55:14;;;;;;;9.45;8.48;;;19.30;99.90;;;19.69;77.14;101458.91;5135612;27;20044;-68
2021/06/19 07:57:43;;;;;;;9.00;8.10;;;19.40;99.90;;;19.61;77.47;101430.53;5135223;27;20084;-68
2021/06/19 08:00:13;;;;;;;8.70;7.88;;;19.40;99.90;;;19.77;77.21;101454.16;5135660;27;20374;-67
2021/06/19 08:02:43;;;;;;;;;;;19.40;99.90;;;19.83;77.10;101455.75;5136126;27;20049;-68
2021/06/19 08:05:14;;;;;;;11.40;7.47;;;19.50;99.90;;;19.58;77.00;101449.44;5135584;27;19927;-68
2021/06/19 08:07:43;;;;;;;;;;;19.40;99.90;;;19.54;77.60;101461.19;5136136;27;20051;-67
2021/06/19 08:10:12;;;;;;;8.05;6.10;;;19.30;99.90;;;19.64;77.85;101466.25;5135457;27;20300;-67
2021/06/19 08:12:42;;;;;;;7.07;6.05;;;19.30;99.90;;;19.47;77.86;101462.34;5135430;27;20043;-67
2021/06/19 08:15:12;;;;;;;9.63;6.40;;;19.20;99.90;;;19.52;77.93;101468.41;5135471;27;20043;-67
2021/06/19 08:17:41;;;;;;;5.57;5.07;;;19.10;99.90;;;19.52;77.40;101469.31;5135352;27;20377;-67
2021/06/19 08:20:13;;;;;;;6.28;5.57;;;19.20;99.90;;;19.41;78.12;101465.19;5134618;27;20047;-67
2021/06/19 08:22:43;;;;;;;7.00;5.35;;;19.10;99.90;;;19.40;77.92;101466.09;5116885;27;20055;-68
2021/06/19 08:25:12;;;;;;;8.63;6.25;;;19.10;99.90;;;19.32;77.77;101462.75;5116591;27;20480;-68
2021/06/19 08:27:41;;;;;;;5.32;4.88;;;19.00;99.90;;;19.37;76.97;101471.59;5116319;27;20100;-67
2021/06/19 08:30:11;;;;;;;12.88;6.95;;;19.10;99.90;;;19.42;76.80;101480.34;5134575;27;20498;-68
2021/06/19 08:32:41;;;;;;;8.50;6.43;;;19.10;99.90;;;19.48;76.52;101485.53;5134985;27;20518;-67
2021/06/19 08:35:13;;;;;;;7.55;6.68;;;19.20;99.90;;;19.58;76.14;101470.91;5135035;27;20097;-67
2021/06/19 08:37:42;;;;;;;7.85;5.75;;;19.30;99.90;;;19.56;75.62;101464.72;5134884;27;20051;-67
2021/06/19 08:40:11;;;;;;;8.15;4.90;;;19.30;99.90;;;19.72;75.65;101472.22;5134868;27;20088;-67
2021/06/19 08:42:40;;;;;;;4.95;4.43;;;19.40;99.90;;;19.79;74.97;101454.09;5116536;27;20047;-67
2021/06/19 08:45:09;;;;;;;5.25;4.75;;;19.40;99.90;;;19.81;74.83;101436.16;5134703;27;20051;-67
2021/06/19 08:47:38;;;;;;;5.97;4.95;;;19.60;99.90;;;20.07;75.22;101459.44;5134433;27;20050;-67
2021/06/19 08:50:10;;;;;;;5.60;4.82;;;19.70;99.90;;;20.17;74.68;101456.38;5134664;27;20615;-67
2021/06/19 08:52:42;;;;;;;8.32;5.43;;;19.80;99.90;;;20.16;73.65;101460.00;5116245;27;20399;-67
2021/06/19 08:55:15;;;;;;;6.50;4.93;;;19.80;99.90;;;20.17;74.02;101458.22;5134244;27;20043;-67
2021/06/19 08:57:44;;;;;;;5.40;4.50;;;19.80;99.90;;;19.99;73.27;101451.66;5116160;27;20434;-67
2021/06/19 09:00:16;;;;;;;6.85;5.40;;;19.70;99.90;;;19.81;74.04;101454.94;5134679;27;20043;-67
2021/06/19 09:02:48;;;;;;;6.28;5.10;;;19.60;99.90;;;19.58;75.07;101455.69;5134378;27;20043;-67
2021/06/19 09:05:17;;;;;;;;;;;19.30;99.90;;;19.39;75.59;101438.41;5135374;27;20469;-67
2021/06/19 09:07:50;;;;;;;6.40;5.00;;;19.20;99.90;;;19.24;76.11;101433.47;5133902;27;19972;-67
2021/06/19 09:10:28;;;;;;;8.20;5.47;;;19.00;99.90;;;19.29;76.41;101436.03;5115844;27;20104;-67
2021/06/19 09:13:07;;;;;;;7.88;5.68;;;19.00;99.90;;;19.23;76.26;101436.22;5134290;27;20047;-67
2021/06/19 09:15:40;;;;;;;5.97;5.43;;;19.00;99.90;;;19.36;76.37;101441.19;5134066;27;20092;-67
2021/06/19 09:18:13;;;;;;;6.85;5.90;;;19.10;99.90;;;19.57;76.48;101450.34;5134257;27;20043;-67
2021/06/19 09:20:50;;;;;;;5.60;5.07;;;19.30;99.90;;;19.58;75.34;101450.31;5133939;27;20031;-68
2021/06/19 09:23:32;;;;;;;5.55;5.05;;;19.40;99.90;;;19.84;74.28;101456.66;5134179;27;20047;-67
2021/06/19 09:26:16;;;;;;;7.03;5.43;;;19.60;99.90;;;19.91;73.92;101445.66;5115564;27;20062;-67
2021/06/19 09:29:16;;;;;;;7.50;5.40;;;19.70;99.90;;;19.92;72.94;101449.22;5133758;27;20492;-67
2021/06/19 09:31:48;;;;;;;5.85;5.30;;;19.70;99.90;;;20.01;73.20;101455.16;5133028;27;20051;-68
2021/06/19 09:34:19;;;;;;;6.18;5.50;;;19.70;99.90;;;19.87;73.90;101452.06;5133626;27;20452;-67
2021/06/19 09:36:51;;;;;;;6.15;5.55;;;19.60;99.90;;;19.88;73.90;101453.78;5133949;27;20051;-67
2021/06/19 09:39:26;;;;;;;6.35;5.50;;;19.60;99.90;;;19.33;73.67;101357.25;5133910;27;20039;-67
2021/06/19 09:41:57;;;;;;;5.28;4.70;;;19.60;99.90;;;19.83;74.33;101453.09;5133863;27;20078;-67
2021/06/19 09:44:38;;;;;;;5.75;5.15;;;19.60;99.90;;;19.66;74.46;101461.69;5133649;28;20054;-67
2021/06/19 09:47:07;;;;;;;;;;;19.40;99.90;;;19.46;74.46;101463.25;5116105;28;20051;-67
2021/06/19 09:49:39;;;;;;;5.70;4.82;;;19.30;99.90;;;19.39;74.43;101459.00;5133582;28;19949;-67
2021/06/19 09:52:09;;;;;;;6.13;5.13;;;19.20;99.90;;;19.64;74.30;101468.94;5133736;28;20078;-68
2021/06/19 09:54:43;;;;;;;5.10;4.53;;;19.30;99.90;;;19.49;74.36;101458.66;5133662;28;20055;-67
2021/06/19 09:57:16;;;;;;;4.75;4.35;;;19.30;99.90;;;19.57;74.75;101469.13;5133804;28;20362;-67
2021/06/19 09:59:45;;;;;;;4.65;4.18;;;19.30;99.90;;;19.55;74.44;101468.34;5133435;28;20035;-67
2021/06/19 10:02:20;;;;;;;6.00;4.78;;;19.30;99.90;;;19.54;74.32;101461.19;5133652;28;20047;-67
2021/06/19 10:04:56;;;;;;;6.47;4.53;;;19.30;99.90;;;19.47;74.56;101470.38;5133424;28;20043;-67
2021/06/19 10:07:26;;;;;;;4.72;4.32;;;19.20;99.90;;;19.78;73.55;101471.16;5133740;28;20051;-67
2021/06/19 10:09:58;;;;;;;5.22;4.72;;;19.40;99.90;;;19.70;74.19;101449.91;5133572;28;20042;-67
2021/06/19 10:12:29;;;;;;;6.75;4.50;;;19.50;99.90;;;19.58;74.15;101465.53;5133666;28;20043;-67
2021/06/19 10:15:01;;;;;;;4.68;4.30;;;19.40;99.90;;;19.74;72.09;101462.31;5133502;28;20070;-67
2021/06/19 10:17:32;;;;;;;5.07;4.18;;;19.40;99.90;;;19.77;72.24;101459.53;5114954;28;20492;-67